Terminal Aerodrome Forecast
Issued by NWS

Current Version | Previous Version | Text Only | Print | Product List | Glossary Off
Versions: 1 2 3 4 5 6 7 8 9 10 11 12 13 14 15 16 17 18 19 20 21 22 23 24 25

000
FTUS41 KRLX 200800 AAA
TAFCKB
TAF AMD
KCKB 200840Z 2009/2106 00000KT P6SM SCT220
     FM201200 00000KT P6SM BKN070 OVC200
     FM201500 21006KT P6SM BKN060
     FM201800 21007G14KT P6SM BKN050
     FM210500 22005KT 6SM -SHRA BR OVC025=

USA.gov is the U.S. government's official web portal to all federal, state and local government web resources and services.